Terminal Aerodrome Forecast
Issued by NWS Grand Forks, ND

Home | Current Version | Previous Version | Graphics & Text | Print | Product List | Glossary On
Versions: 1 2 3 4 5 6 7 8 9 10 11 12 13 14 15 16 17 18 19 20 21 22 23
457
FTUS43 KFGF 182044 AAA
TAFFAR
TAF AMD
KFAR 182044Z 1821/1918 02018G28KT 2SM -SN BLSN BKN015 OVC035
     FM182200 36016G24KT 4SM BLSN BKN015 OVC035
     FM190100 36013KT P6SM BKN035
     FM190900 01009KT P6SM BKN050=

USA.gov is the U.S. government's official web portal to all federal, state and local government web resources and services.